메인 페이지
METAR-TAF:

METAR-TAF

공항 :

코토카 국제공항

아크라, 가나

위도: 05-36N, 경도: 000-10W, 고도: 68m

현재 날씨관측

예보는 39분 전, 09:00시(UTC)에 발표되었습니다.
9kt
온도 25°C
습도 94%
기압 1016 hPa
시정 10km 이상
고도 1600ft 상공 구름 조금
고도 4200ft 상공 구름 보통

METAR: DGAA 200900Z 26009KT 9999 FEW016 SCT042 25/24 Q1016 NOSIG

시각: 09:39 (09:39 UTC)

예보

예보는 3 시간 39분 전, 06:00시(UTC)에 발표되었습니다.
예보 대상 시간: 20일 06시부터 21일 12시까지 (UTC)
10kt
시정 10km 이상
고도 1400ft 상공 구름 많음
일시적
20일 06시부터 20일 10시까지 (UTC)
시정: 5000m
전환 중
20일 12시부터 20일 12시까지 (UTC)
15kt
고도 2500ft 상공 구름 많음
확률 30%
20일 16시부터 20일 20시까지 (UTC)
시정: 7000m
약한비

TAF: DGAA 200600Z 2006/2112 27010KT 9999 BKN014 TEMPO 2006/2010 5000 RA BECMG 2012/2012 18015KT BKN025 PROB30 2016/2020 7000 -RA

4,000개 이상의 공항 관측 자료 및 예보 (METAR 및 TAF 보고).

지도상에서 검색 가능한 기상관측소가 노란 점과 빨간 점으로 표시되어 있습니다.

기상관측소 명을 보려면 표시 위로 마우스를 이동하세요.

날씨 관측과 예보를 보려면 클릭하세요.

지도 변경 : 확대하려면 엑스 표시가 있는 녹색 버튼, 축소하려면 빼기 표시가 있는 녹색 버튼, 다음 페이지의 지도를 보려면 녹색 화살표를 클릭하세요.


METAR-TAF: